< < Back
Terminal Aerodrome Forecast


Current Version              Previous Versions:   1  2  3  4  5  6  7  8  9  

Terminal Aerodrome Forecast

531
FTUS44 KBMX 302300
TAFANB
TAF
KANB 302327Z 3100/3124 35003KT P6SM SKC
     FM311800 29007KT P6SM SCT250
     FM312100 31010KT P6SM OVC050=



Latest METAR

293
SAUS70 KWBC 310400 RRA
MTRANB
METAR KANB 310353Z AUTO 00000KT 10SM CLR 06/05 A3003 RMK AO2 SLP170
T00610050


USA.gov is the U.S. government's official web portal to all federal, state and local government web resources and services.